Time;durP1;ratioP1;P1;durP2;ratioP2;P2;SDS_P1;SDS_P2;PMS_P1;PMS_P2;Temp;Humidity;BMP_temperature;BMP_pressure;BME280_temperature;BME280_humidity;BME280_pressure;Samples;Min_cycle;Max_cycle;Signal;HPM_P1;HPM_P2
2023/09/05 00:00:14;;;;;;;5.43;4.13;;;487.00;2380.80;;;;;;5044106;28;20033;-73
2023/09/05 00:02:41;;;;;;;6.45;4.28;;;487.10;2380.80;;;;;;5040053;28;20031;-72
2023/09/05 00:05:08;;;;;;;7.45;4.40;;;487.10;2380.80;;;;;;5039759;28;20037;-73
2023/09/05 00:07:37;;;;;;;8.43;5.03;;;487.10;2380.80;;;;;;5043362;28;20034;-73
2023/09/05 00:10:12;;;;;;;6.85;4.82;;;487.10;2380.80;;;;;;5041781;28;20410;-73
2023/09/05 00:12:43;;;;;;;6.32;4.75;;;487.10;2380.80;;;;;;5034221;28;20034;-73
2023/09/05 00:15:14;;;;;;;7.30;4.18;;;487.10;2380.80;;;;;;5034015;28;20026;-73
2023/09/05 00:17:40;;;;;;;7.90;4.70;;;487.00;2380.80;;;;;;5033750;28;20057;-73
2023/09/05 00:20:07;;;;;;;6.68;4.82;;;487.00;2380.80;;;;;;5035447;28;20109;-73
2023/09/05 00:22:33;;;;;;;6.88;4.90;;;487.00;2380.80;;;;;;5035814;28;20029;-74
2023/09/05 00:24:59;;;;;;;7.40;4.45;;;487.00;2380.80;;;;;;5036205;28;20018;-73
2023/09/05 00:27:24;;;;;;;7.32;5.00;;;487.00;2380.80;;;;;;5036014;28;20033;-72
2023/09/05 00:29:50;;;;;;;7.03;4.20;;;487.00;2380.80;;;;;;5035667;28;20026;-73
2023/09/05 00:32:18;;;;;;;7.40;4.40;;;487.00;2380.80;;;;;;5035559;28;20023;-73
2023/09/05 00:34:44;;;;;;;7.90;4.53;;;487.00;2380.80;;;;;;5034321;28;20041;-74
2023/09/05 00:37:10;;;;;;;7.05;5.40;;;487.00;2380.80;;;;;;5035636;28;20026;-73
2023/09/05 00:39:41;;;;;;;6.32;4.50;;;487.00;2380.80;;;;;;5035592;28;20045;-73
2023/09/05 00:42:10;;;;;;;6.20;4.50;;;487.00;2380.80;;;;;;5035608;28;20029;-74
2023/09/05 00:44:37;;;;;;;6.40;4.47;;;487.00;2380.80;;;;;;5035611;28;20021;-73
2023/09/05 00:47:04;;;;;;;5.63;4.22;;;486.90;2380.80;;;;;;5035420;28;20104;-73
2023/09/05 00:49:39;;;;;;;5.35;3.97;;;486.80;2380.80;;;;;;5035504;28;20478;-75
2023/09/05 00:52:06;;;;;;;6.65;4.80;;;486.80;2380.80;;;;;;5034362;28;20484;-73
2023/09/05 00:54:33;;;;;;;8.45;5.05;;;486.80;2380.80;;;;;;5035256;28;20108;-73
2023/09/05 00:56:59;;;;;;;6.85;4.53;;;486.80;2380.80;;;;;;5035346;28;20037;-73
2023/09/05 00:59:25;;;;;;;9.88;5.32;;;486.70;2380.80;;;;;;5035194;28;20021;-74
2023/09/05 01:01:52;;;;;;;6.50;4.82;;;486.70;2380.80;;;;;;5033806;28;20056;-74
2023/09/05 01:04:18;;;;;;;6.50;5.13;;;486.60;2380.80;;;;;;5035038;28;20080;-74
2023/09/05 01:07:04;;;;;;;7.03;4.75;;;486.60;2380.80;;;;;;5035103;28;20013;-73
2023/09/05 01:09:45;;;;;;;7.75;4.95;;;486.60;2380.80;;;;;;5034544;28;20041;-73
2023/09/05 01:12:11;;;;;;;7.20;5.45;;;486.50;2380.80;;;;;;5035082;28;20132;-73
2023/09/05 01:14:36;;;;;;;11.10;5.53;;;486.50;2380.80;;;;;;5034934;28;20044;-72
2023/09/05 01:17:05;;;;;;;7.03;5.47;;;486.50;2380.80;;;;;;5034849;28;20513;-73
2023/09/05 01:19:34;;;;;;;7.28;5.35;;;486.50;2380.80;;;;;;5034922;28;20021;-73
2023/09/05 01:22:00;;;;;;;8.35;5.55;;;486.50;2380.80;;;;;;5033524;28;20073;-73
2023/09/05 01:24:26;;;;;;;6.95;4.88;;;486.40;2380.80;;;;;;5034660;28;20032;-74
2023/09/05 01:26:53;;;;;;;8.05;5.60;;;486.40;2380.80;;;;;;5034636;28;20108;-72
2023/09/05 01:29:30;;;;;;;9.27;5.78;;;486.40;2380.80;;;;;;5034747;28;20093;-73
2023/09/05 01:31:59;;;;;;;8.05;4.57;;;461.70;2380.80;;;;;;5034404;28;20088;-73
2023/09/05 01:34:25;;;;;;;8.88;5.05;;;486.40;2380.80;;;;;;5034361;28;20125;-74
2023/09/05 01:36:51;;;;;;;9.80;5.45;;;461.70;2380.80;;;;;;5034444;28;20117;-73
2023/09/05 01:39:17;;;;;;;8.82;4.97;;;461.70;2380.80;;;;;;5034432;28;20109;-73
2023/09/05 01:41:42;;;;;;;7.18;4.88;;;486.40;2380.80;;;;;;5034371;28;20112;-73
2023/09/05 01:44:08;;;;;;;7.15;4.75;;;486.40;2380.80;;;;;;5034410;28;20021;-73
2023/09/05 01:46:34;;;;;;;7.63;5.40;;;486.50;2380.80;;;;;;5034315;28;20037;-73
2023/09/05 01:49:00;;;;;;;10.35;5.63;;;486.50;2380.80;;;;;;5034311;28;20029;-74
2023/09/05 01:51:25;;;;;;;6.72;5.40;;;486.40;2380.80;;;;;;5034477;28;20049;-73
2023/09/05 01:53:51;;;;;;;7.72;4.93;;;486.40;2380.80;;;;;;5034324;28;20028;-73
2023/09/05 01:56:17;;;;;;;6.50;4.95;;;461.70;2380.80;;;;;;5032686;28;20405;-73
2023/09/05 01:58:42;;;;;;;6.57;4.85;;;461.70;2380.80;;;;;;5034002;28;20028;-73
2023/09/05 02:01:08;;;;;;;6.47;5.03;;;461.70;2380.80;;;;;;5034083;28;20513;-73
2023/09/05 02:03:34;;;;;;;7.72;5.18;;;461.70;2380.80;;;;;;5032562;28;20064;-73
2023/09/05 02:06:00;;;;;;;7.53;4.63;;;461.70;2380.80;;;;;;5034160;28;20033;-73
2023/09/05 02:08:25;;;;;;;5.85;4.80;;;461.70;2380.80;;;;;;5033931;28;20485;-74
2023/09/05 02:10:51;;;;;;;8.48;4.93;;;461.70;2380.80;;;;;;5033834;28;20021;-73
2023/09/05 02:13:17;;;;;;;7.07;4.90;;;461.70;2380.80;;;;;;5033992;28;20504;-73
2023/09/05 02:15:43;;;;;;;8.05;5.00;;;461.60;2380.80;;;;;;5032352;28;20425;-74
2023/09/05 02:18:11;;;;;;;7.15;4.78;;;461.60;2380.80;;;;;;5032517;28;20428;-73
2023/09/05 02:20:42;;;;;;;6.93;4.95;;;461.60;2380.80;;;;;;5033819;28;20021;-73
2023/09/05 02:23:12;;;;;;;8.93;5.53;;;461.50;2380.80;;;;;;5032356;28;20029;-73
2023/09/05 02:25:38;;;;;;;9.60;4.88;;;461.50;2380.80;;;;;;5032196;28;20071;-72
2023/09/05 02:28:04;;;;;;;6.60;5.18;;;461.50;2380.80;;;;;;5032421;28;20375;-73
2023/09/05 02:30:30;;;;;;;7.93;4.97;;;461.50;2380.80;;;;;;5032137;28;20024;-73
2023/09/05 02:32:57;;;;;;;8.02;5.50;;;461.50;2380.80;;;;;;5033200;28;20037;-72
2023/09/05 02:35:24;;;;;;;6.60;4.78;;;461.50;2380.80;;;;;;5033401;28;20075;-73
2023/09/05 02:37:50;;;;;;;6.68;4.32;;;461.50;2380.80;;;;;;5032334;28;20087;-74
2023/09/05 02:40:17;;;;;;;10.10;5.40;;;461.70;2380.80;;;;;;5033446;28;20532;-73
2023/09/05 02:42:43;;;;;;;6.95;5.18;;;461.50;2380.80;;;;;;5033345;28;20033;-73
2023/09/05 02:45:10;;;;;;;10.93;5.30;;;461.40;2380.80;;;;;;5033376;28;20018;-74
2023/09/05 02:47:35;;;;;;;7.93;5.63;;;461.40;2380.80;;;;;;5033334;28;20025;-73
2023/09/05 02:50:01;;;;;;;10.00;5.35;;;461.40;2380.80;;;;;;5031999;28;20028;-73
2023/09/05 02:52:27;;;;;;;8.75;5.50;;;461.40;2380.80;;;;;;5033425;28;20029;-74
2023/09/05 02:54:53;;;;;;;6.78;5.53;;;461.40;2380.80;;;;;;5033322;28;20068;-72
2023/09/05 02:57:18;;;;;;;10.15;4.80;;;461.40;2380.80;;;;;;5032960;28;20053;-73
2023/09/05 02:59:44;;;;;;;8.75;5.30;;;461.30;2380.80;;;;;;5033205;28;20027;-73
2023/09/05 03:02:10;;;;;;;8.43;6.13;;;461.40;2380.80;;;;;;5032748;28;20026;-74
2023/09/05 03:04:35;;;;;;;7.25;5.10;;;461.20;2380.80;;;;;;5032643;28;20029;-73
2023/09/05 03:07:02;;;;;;;7.90;5.60;;;461.20;2380.80;;;;;;5032515;28;20032;-73
2023/09/05 03:09:29;;;;;;;7.32;5.40;;;461.40;2380.80;;;;;;5032591;28;20022;-74
2023/09/05 03:11:55;;;;;;;6.82;5.18;;;461.20;2380.80;;;;;;5032548;28;20470;-73
2023/09/05 03:14:21;;;;;;;9.23;5.35;;;461.20;2380.80;;;;;;5032577;28;20044;-73
2023/09/05 03:16:47;;;;;;;7.75;5.18;;;461.20;2380.80;;;;;;5036414;28;20474;-74
2023/09/05 03:19:14;;;;;;;7.10;5.35;;;461.20;2380.80;;;;;;5036589;28;20065;-73
2023/09/05 03:21:39;;;;;;;7.28;5.18;;;461.10;2380.80;;;;;;5036298;28;20025;-73
2023/09/05 03:24:05;;;;;;;8.52;6.43;;;461.10;2380.80;;;;;;5036462;28;20386;-74
2023/09/05 03:26:31;;;;;;;7.95;6.13;;;461.10;2380.80;;;;;;5036316;28;20116;-74
2023/09/05 03:28:59;;;;;;;6.78;5.28;;;461.00;2380.80;;;;;;5036147;28;20033;-73
2023/09/05 03:31:28;;;;;;;7.55;5.30;;;460.90;2380.80;;;;;;5036237;28;20021;-73
2023/09/05 03:33:54;;;;;;;7.45;5.38;;;460.90;2380.80;;;;;;5036157;28;20045;-73
2023/09/05 03:36:21;;;;;;;8.20;5.38;;;460.90;2380.80;;;;;;5034426;28;20060;-73
2023/09/05 03:38:47;;;;;;;7.95;5.47;;;461.00;2380.80;;;;;;5036274;28;20017;-73
2023/09/05 03:41:13;;;;;;;6.55;5.10;;;460.90;2380.80;;;;;;5036125;28;20020;-73
2023/09/05 03:43:39;;;;;;;6.88;5.10;;;460.90;2380.80;;;;;;5035912;28;20018;-73
2023/09/05 03:46:04;;;;;;;7.47;5.18;;;461.00;2380.80;;;;;;5035016;28;20026;-73
2023/09/05 03:48:30;;;;;;;8.50;5.55;;;461.00;2380.80;;;;;;5036057;28;20382;-73
2023/09/05 03:50:56;;;;;;;7.25;5.47;;;461.00;2380.80;;;;;;5034687;28;20619;-73
2023/09/05 03:53:21;;;;;;;10.75;6.22;;;461.00;2380.80;;;;;;5035895;28;20486;-73
2023/09/05 03:55:47;;;;;;;8.52;5.45;;;461.00;2380.80;;;;;;5035718;28;20034;-73
2023/09/05 03:58:13;;;;;;;8.00;5.85;;;461.00;2380.80;;;;;;5034708;28;20063;-73
2023/09/05 04:00:39;;;;;;;7.65;5.18;;;460.90;2380.80;;;;;;5034426;28;20034;-73
2023/09/05 04:03:05;;;;;;;7.10;5.38;;;460.90;2380.80;;;;;;5035493;28;20029;-74
2023/09/05 04:05:33;;;;;;;6.60;4.78;;;460.90;2380.80;;;;;;5034343;28;20378;-73
2023/09/05 04:08:00;;;;;;;8.45;5.45;;;460.90;2380.80;;;;;;5035557;28;20022;-73
2023/09/05 04:10:25;;;;;;;8.93;5.85;;;460.90;2380.80;;;;;;5035681;28;20022;-73
2023/09/05 04:12:51;;;;;;;9.60;6.40;;;460.90;2380.80;;;;;;5035558;28;20029;-73
2023/09/05 04:15:21;;;;;;;9.40;5.53;;;460.80;2380.80;;;;;;5035437;28;20017;-73
2023/09/05 04:17:47;;;;;;;8.07;5.60;;;460.80;2380.80;;;;;;5035229;28;20033;-73
2023/09/05 04:20:13;;;;;;;8.60;6.15;;;460.80;2380.80;;;;;;5035397;28;20029;-73
2023/09/05 04:22:39;;;;;;;10.77;5.47;;;460.90;2380.80;;;;;;5035530;28;20036;-73
2023/09/05 04:25:08;;;;;;;10.55;5.82;;;460.80;2380.80;;;;;;5035272;28;20024;-73
2023/09/05 04:27:33;;;;;;;7.80;6.00;;;460.80;2380.80;;;;;;5033823;28;20060;-73
2023/09/05 04:30:00;;;;;;;18.60;6.15;;;460.80;2380.80;;;;;;5033827;28;20030;-74
2023/09/05 04:32:30;;;;;;;10.60;5.90;;;460.80;2380.80;;;;;;5034974;28;20037;-74
2023/09/05 04:35:01;;;;;;;10.25;5.50;;;436.10;2355.20;;;;;;5035128;28;20394;-73
2023/09/05 04:37:27;;;;;;;8.13;5.88;;;436.10;2355.20;;;;;;5035087;28;20390;-73
2023/09/05 04:39:54;;;;;;;8.43;5.40;;;460.80;2380.80;;;;;;5034934;28;20544;-73
2023/09/05 04:42:20;;;;;;;8.38;5.35;;;460.80;2380.80;;;;;;5035021;28;20040;-73
2023/09/05 04:44:47;;;;;;;9.02;6.47;;;436.10;2355.20;;;;;;5034831;28;20022;-73
2023/09/05 04:47:28;;;;;;;10.40;5.93;;;460.80;2380.80;;;;;;5033592;28;20033;-74
2023/09/05 04:49:57;;;;;;;7.32;5.18;;;436.10;2355.20;;;;;;5034861;28;20025;-74
2023/09/05 04:52:26;;;;;;;10.13;6.03;;;460.80;2380.80;;;;;;5034654;28;20061;-73
2023/09/05 04:54:53;;;;;;;7.85;5.65;;;436.10;2355.20;;;;;;5040139;28;20111;-73
2023/09/05 04:57:19;;;;;;;12.20;6.40;;;460.80;2380.80;;;;;;5038082;28;20034;-73
2023/09/05 04:59:47;;;;;;;12.02;6.85;;;436.10;2355.20;;;;;;5045035;28;20028;-72
2023/09/05 05:02:16;;;;;;;12.52;6.85;;;460.80;2380.80;;;;;;5037036;28;20045;-73
2023/09/05 05:04:46;;;;;;;7.40;5.85;;;436.10;2355.20;;;;;;5040756;28;20049;-72
2023/09/05 05:07:12;;;;;;;9.70;7.28;;;460.80;2380.80;;;;;;5044469;28;20107;-72
2023/09/05 05:09:41;;;;;;;9.55;6.82;;;436.10;2355.20;;;;;;5042795;28;20390;-71
2023/09/05 05:12:07;;;;;;;11.70;6.60;;;436.10;2355.20;;;;;;5035289;28;20033;-71
2023/09/05 05:14:33;;;;;;;10.43;6.90;;;460.80;2380.80;;;;;;5039971;28;20025;-73
2023/09/05 05:16:59;;;;;;;8.57;6.38;;;460.80;2380.80;;;;;;5046564;28;20071;-73
2023/09/05 05:19:25;;;;;;;10.98;6.25;;;461.00;2380.80;;;;;;5039905;28;20053;-72
2023/09/05 05:21:52;;;;;;;10.75;6.68;;;461.00;2380.80;;;;;;5040836;28;20101;-74
2023/09/05 05:24:17;;;;;;;8.68;6.63;;;461.10;2380.80;;;;;;5043041;28;20480;-73
2023/09/05 05:26:44;;;;;;;9.90;7.05;;;461.20;2380.80;;;;;;5041824;28;20104;-73
2023/09/05 05:29:09;;;;;;;9.40;5.82;;;461.20;2380.80;;;;;;5037234;28;20028;-71
2023/09/05 05:31:36;;;;;;;9.15;6.88;;;461.20;2380.80;;;;;;5043553;28;20028;-72
2023/09/05 05:34:02;;;;;;;9.27;6.28;;;461.20;2380.80;;;;;;5042918;28;20520;-72
2023/09/05 05:36:29;;;;;;;7.90;5.90;;;461.40;2380.80;;;;;;5046159;28;20070;-71
2023/09/05 05:38:56;;;;;;;10.50;5.95;;;461.40;2380.80;;;;;;5039462;28;20041;-73
2023/09/05 05:41:22;;;;;;;9.27;6.38;;;461.50;2380.80;;;;;;5043324;28;20021;-71
2023/09/05 05:43:48;;;;;;;10.23;5.72;;;461.50;2380.80;;;;;;5040033;28;20028;-72
2023/09/05 05:46:14;;;;;;;12.35;6.55;;;461.60;2380.80;;;;;;5041401;28;20025;-71
2023/09/05 05:48:40;;;;;;;9.25;6.38;;;461.70;2380.80;;;;;;5038792;28;20022;-71
2023/09/05 05:51:06;;;;;;;8.93;6.15;;;461.70;2380.80;;;;;;5038528;28;20023;-71
2023/09/05 05:53:32;;;;;;;7.57;6.05;;;486.40;2380.80;;;;;;5039167;28;20018;-72
2023/09/05 05:55:58;;;;;;;7.75;5.28;;;486.50;2380.80;;;;;;5038093;28;20025;-71
2023/09/05 05:58:24;;;;;;;8.10;5.75;;;486.50;2380.80;;;;;;5046524;28;20013;-72
2023/09/05 06:00:53;;;;;;;8.82;5.78;;;486.70;2380.80;;;;;;5041044;28;20044;-71
2023/09/05 06:03:21;;;;;;;5.90;4.85;;;486.80;2380.80;;;;;;5037540;28;20025;-72
2023/09/05 06:05:50;;;;;;;6.13;5.53;;;486.90;2380.80;;;;;;5047340;28;20509;-72
2023/09/05 06:08:16;;;;;;;7.65;5.50;;;487.00;2380.80;;;;;;5038142;28;20025;-71
2023/09/05 06:10:42;;;;;;;7.00;5.03;;;487.00;2380.80;;;;;;5038349;28;20087;-70
2023/09/05 06:13:08;;;;;;;7.72;5.93;;;487.10;2380.80;;;;;;5034440;28;20045;-70
2023/09/05 06:15:34;;;;;;;9.65;5.63;;;487.20;2380.80;;;;;;5033365;28;20083;-71
2023/09/05 06:18:01;;;;;;;8.77;5.90;;;512.00;2380.80;;;;;;5039343;28;20029;-70
2023/09/05 06:20:28;;;;;;;8.85;5.70;;;512.00;2380.80;;;;;;5043504;28;20418;-72
2023/09/05 06:22:54;;;;;;;9.20;5.35;;;512.00;2380.80;;;;;;5033366;28;20055;-70
2023/09/05 06:25:21;;;;;;;8.45;5.80;;;512.20;2380.80;;;;;;5038829;28;20032;-71
2023/09/05 06:27:47;;;;;;;9.27;5.70;;;512.40;2380.80;;;;;;5037868;28;20503;-71
2023/09/05 06:30:13;;;;;;;8.52;6.25;;;512.40;2380.80;;;;;;5042411;28;20120;-71
2023/09/05 06:32:40;;;;;;;7.75;5.57;;;512.60;2380.80;;;;;;5043153;28;20029;-71
2023/09/05 06:35:06;;;;;;;9.25;5.88;;;512.70;2380.80;;;;;;5043243;28;20033;-71
2023/09/05 06:37:33;;;;;;;13.32;6.15;;;512.80;2380.80;;;;;;5044245;28;20029;-71
2023/09/05 06:40:00;;;;;;;7.78;5.38;;;512.80;2380.80;;;;;;5039453;28;20041;-71
2023/09/05 06:42:26;;;;;;;6.32;4.82;;;512.90;2380.80;;;;;;5037882;28;20032;-71
2023/09/05 06:44:52;;;;;;;7.15;5.43;;;537.70;2406.40;;;;;;5030526;28;20026;-71
2023/09/05 06:47:18;;;;;;;8.60;5.68;;;538.00;2406.40;;;;;;5037852;28;20032;-70
2023/09/05 06:49:44;;;;;;;8.90;5.88;;;538.20;2406.40;;;;;;5033524;28;20025;-72
2023/09/05 06:52:09;;;;;;;7.70;5.38;;;538.20;2406.40;;;;;;5038678;28;20022;-73
2023/09/05 06:54:35;;;;;;;6.45;5.03;;;538.50;2406.40;;;;;;5038323;28;20148;-73
2023/09/05 06:57:01;;;;;;;7.28;5.97;;;563.30;2432.00;;;;;;5041682;28;20040;-73
2023/09/05 06:59:27;;;;;;;6.20;4.78;;;563.40;2432.00;;;;;;5035951;28;20463;-72
2023/09/05 07:01:53;;;;;;;10.18;5.40;;;563.60;2432.00;;;;;;5033866;28;20377;-72
2023/09/05 07:04:19;;;;;;;7.28;4.88;;;563.70;2432.00;;;;;;5040818;28;20072;-72
2023/09/05 07:06:45;;;;;;;5.75;4.75;;;563.90;2432.00;;;;;;5035370;28;20407;-72
2023/09/05 07:09:11;;;;;;;7.03;4.45;;;564.10;2432.00;;;;;;5046627;28;20057;-71
2023/09/05 07:11:36;;;;;;;6.85;4.43;;;588.90;2432.00;;;;;;5044680;28;20056;-72
2023/09/05 07:14:03;;;;;;;6.75;4.03;;;589.20;2432.00;;;;;;5039911;28;20052;-72
2023/09/05 07:16:29;;;;;;;6.72;4.32;;;589.40;2432.00;;;;;;5041860;28;20037;-73
2023/09/05 07:18:55;;;;;;;5.82;3.88;;;589.70;2432.00;;;;;;5044826;28;20022;-70
2023/09/05 07:21:21;;;;;;;5.50;4.10;;;614.50;2432.00;;;;;;5036973;28;20041;-71
2023/09/05 07:23:47;;;;;;;8.13;4.30;;;614.60;2432.00;;;;;;5033421;28;20079;-73
2023/09/05 07:26:12;;;;;;;10.25;5.35;;;614.70;2432.00;;;;;;5039348;28;20033;-72
2023/09/05 07:28:38;;;;;;;7.15;4.55;;;615.00;2432.00;;;;;;5042530;28;20026;-71
2023/09/05 07:31:04;;;;;;;10.73;4.68;;;615.10;2432.00;;;;;;5037967;28;20044;-73
2023/09/05 07:33:31;;;;;;;8.27;4.97;;;615.30;2432.00;;;;;;5040541;28;20370;-73
2023/09/05 07:35:57;;;;;;;6.45;4.53;;;640.10;2432.00;;;;;;5043677;28;20053;-73
2023/09/05 07:38:23;;;;;;;5.80;4.28;;;640.10;2432.00;;;;;;5037721;28;20033;-73
2023/09/05 07:41:09;;;;;;;6.82;4.70;;;640.40;2432.00;;;;;;5037695;28;20500;-73
2023/09/05 07:43:35;;;;;;;7.32;4.00;;;640.50;2380.80;;;;;;5036600;28;20030;-73
2023/09/05 07:46:01;;;;;;;6.25;3.90;;;640.60;2355.20;;;;;;5040885;28;20032;-72
2023/09/05 07:48:27;;;;;;;7.25;4.55;;;640.90;2329.60;;;;;;5044596;28;20354;-75
2023/09/05 07:51:03;;;;;;;5.10;3.80;;;665.70;2406.40;;;;;;5039615;28;20025;-73
2023/09/05 07:53:32;;;;;;;4.72;3.70;;;665.90;2278.40;;;;;;5043121;28;20108;-74
2023/09/05 07:55:57;;;;;;;7.30;3.65;;;666.00;2355.20;;;;;;5034649;28;20048;-73
2023/09/05 07:58:24;;;;;;;6.47;4.13;;;666.00;2278.40;;;;;;5039436;28;20017;-73
2023/09/05 08:00:52;;;;;;;6.65;3.47;;;666.40;2201.60;;;;;;5044070;28;20084;-72
2023/09/05 08:03:21;;;;;;;4.38;3.55;;;666.30;2176.00;;;;;;5046091;28;20021;-73
2023/09/05 08:05:48;;;;;;;6.82;3.47;;;666.40;2201.60;;;;;;5045048;28;20496;-72
2023/09/05 08:08:15;;;;;;;6.20;3.97;;;691.20;2150.40;;;;;;5038208;28;20030;-74
2023/09/05 08:10:41;;;;;;;6.47;3.47;;;691.40;2176.00;;;;;;5043539;28;20021;-73
2023/09/05 08:13:09;;;;;;;8.35;3.88;;;691.50;2124.80;;;;;;5045238;28;20028;-73
2023/09/05 08:15:36;;;;;;;8.25;3.92;;;691.60;2150.40;;;;;;5042171;28;20037;-73
2023/09/05 08:18:03;;;;;;;10.27;4.72;;;691.60;2099.20;;;;;;5045475;28;20128;-72
2023/09/05 08:20:30;;;;;;;8.80;4.25;;;691.90;2048.00;;;;;;5039768;28;20052;-73
2023/09/05 08:22:55;;;;;;;9.55;3.47;;;692.00;1996.80;;;;;;5038691;28;20060;-73
2023/09/05 08:25:23;;;;;;;4.57;2.95;;;692.00;2252.80;;;;;;5045297;28;20068;-72
2023/09/05 08:27:50;;;;;;;5.85;3.80;;;;;;;;;;5042685;28;20024;-75
2023/09/05 08:30:16;;;;;;;7.20;3.78;;;717.00;1971.20;;;;;;5045596;28;20025;-74
2023/09/05 08:32:43;;;;;;;5.75;4.35;;;717.10;1945.60;;;;;;5037213;28;20029;-73
2023/09/05 08:35:09;;;;;;;7.90;4.05;;;717.20;1945.60;;;;;;5042341;28;20033;-74
2023/09/05 08:37:38;;;;;;;7.28;3.63;;;717.30;1894.40;;;;;;5043163;28;20156;-74
2023/09/05 08:40:04;;;;;;;9.50;3.78;;;717.50;1945.60;;;;;;5043190;28;20071;-75
2023/09/05 08:42:32;;;;;;;7.75;3.95;;;717.70;1945.60;;;;;;5038107;28;20025;-74
2023/09/05 08:45:04;;;;;;;8.98;4.18;;;717.70;1920.00;;;;;;5046153;28;20094;-74
2023/09/05 08:47:31;;;;;;;6.53;3.88;;;717.70;1894.40;;;;;;5037980;28;20470;-74
2023/09/05 08:50:00;;;;;;;11.98;4.13;;;742.50;1945.60;;;;;;5043150;28;20025;-74
2023/09/05 08:52:31;;;;;;;6.75;3.60;;;742.60;1894.40;;;;;;5044092;28;20100;-73
2023/09/05 08:54:57;;;;;;;7.00;3.70;;;742.40;1945.60;;;;;;5045095;28;20121;-73
2023/09/05 08:57:25;;;;;;;4.90;3.47;;;742.70;1920.00;;;;;;5041128;28;20063;-73
2023/09/05 08:59:52;;;;;;;7.60;2.60;;;742.80;1843.20;;;;;;5035227;28;20021;-74
2023/09/05 09:02:17;;;;;;;7.75;3.05;;;742.80;1843.20;;;;;;5037963;28;20075;-73
2023/09/05 09:04:50;;;;;;;3.78;2.72;;;743.00;1817.60;;;;;;5042445;28;20462;-74
2023/09/05 09:07:16;;;;;;;6.55;3.25;;;743.00;1766.40;;;;;;5040458;28;20022;-73
2023/09/05 09:09:42;;;;;;;7.63;3.20;;;742.80;1817.60;;;;;;5041771;28;20031;-74
2023/09/05 09:12:09;;;;;;;8.07;3.65;;;743.10;1792.00;;;;;;5044852;28;20013;-74
2023/09/05 09:14:34;;;;;;;6.93;4.53;;;743.30;1792.00;;;;;;5034483;28;20442;-73
2023/09/05 09:17:02;;;;;;;4.65;3.40;;;768.00;1766.40;;;;;;5044060;28;20040;-74
2023/09/05 09:19:29;;;;;;;5.70;3.42;;;768.10;1740.80;;;;;;5044203;28;20021;-73
2023/09/05 09:22:05;;;;;;;8.73;3.10;;;768.10;1766.40;;;;;;5045817;28;20117;-73
2023/09/05 09:24:34;;;;;;;5.32;3.13;;;768.20;1689.60;;;;;;5044690;28;20115;-74
2023/09/05 09:27:02;;;;;;;3.88;2.75;;;768.20;1689.60;;;;;;5038490;28;20096;-74
2023/09/05 09:29:28;;;;;;;6.70;2.83;;;768.60;1664.00;;;;;;5042444;28;20017;-74
2023/09/05 09:32:22;;;;;;;4.78;3.00;;;768.60;1689.60;;;;;;5039672;28;20031;-74
2023/09/05 09:34:50;;;;;;;7.68;3.08;;;768.90;1689.60;;;;;;5032351;28;20045;-74
2023/09/05 09:37:25;;;;;;;6.82;3.00;;;768.90;1664.00;;;;;;5032568;28;20029;-74
2023/09/05 09:40:01;;;;;;;;;;;793.70;1664.00;;;;;;5042391;28;20021;-74
2023/09/05 09:42:27;;;;;;;7.15;2.95;;;793.70;1638.40;;;;;;5040875;28;19905;-73
2023/09/05 09:44:54;;;;;;;10.32;5.28;;;793.60;1638.40;;;;;;5043547;28;20021;-74
2023/09/05 09:47:20;;;;;;;14.30;5.85;;;793.80;1612.80;;;;;;5046430;28;20433;-72
2023/09/05 09:49:51;;;;;;;10.27;5.18;;;793.80;1664.00;;;;;;5043125;28;20013;-73
2023/09/05 09:52:21;;;;;;;11.98;4.57;;;793.80;1664.00;;;;;;5042247;28;20062;-74
2023/09/05 09:54:51;;;;;;;3.58;2.30;;;794.00;1664.00;;;;;;5046867;28;20100;-73
2023/09/05 09:57:44;;;;;;;6.13;2.30;;;794.20;1587.20;;;;;;5040652;28;20029;-72
2023/09/05 10:00:15;;;;;;;5.47;2.88;;;794.10;1536.00;;;;;;5036669;28;20043;-72
2023/09/05 10:02:45;;;;;;;6.05;2.63;;;;;;;;;;5045377;28;20104;-72
2023/09/05 10:05:12;;;;;;;4.97;2.78;;;819.30;1587.20;;;;;;5040134;28;20474;-72
2023/09/05 10:07:38;;;;;;;7.55;2.75;;;794.50;1561.60;;;;;;5043324;28;20474;-73
2023/09/05 10:10:10;;;;;;;4.85;2.97;;;819.30;1536.00;;;;;;5039799;28;20030;-72
2023/09/05 10:12:37;;;;;;;3.60;2.95;;;819.30;1587.20;;;;;;5039280;28;20025;-72
2023/09/05 10:15:07;;;;;;;4.35;2.58;;;794.50;1510.40;;;;;;5045717;28;20036;-74
2023/09/05 10:17:34;;;;;;;5.95;2.75;;;819.30;1510.40;;;;;;5037228;28;20029;-73
2023/09/05 10:20:00;;;;;;;4.82;2.95;;;819.50;1536.00;;;;;;5040291;28;20022;-72
2023/09/05 10:22:29;;;;;;;4.03;2.90;;;819.40;1587.20;;;;;;5043924;28;20501;-72
2023/09/05 10:24:55;;;;;;;3.47;2.55;;;794.50;1561.60;;;;;;5036180;28;20472;-74
2023/09/05 10:27:21;;;;;;;3.92;2.38;;;794.40;1510.40;;;;;;5038935;28;20040;-75
2023/09/05 10:29:48;;;;;;;3.22;2.88;;;794.40;1484.80;;;;;;5033389;28;20470;-73
2023/09/05 10:32:19;;;;;;;5.53;2.55;;;794.00;1536.00;;;;;;5040920;28;20071;-74
2023/09/05 10:34:45;;;;;;;3.08;2.50;;;794.30;1484.80;;;;;;5038467;28;20114;-72
2023/09/05 10:37:17;;;;;;;3.85;2.53;;;819.30;1561.60;;;;;;5039773;28;20490;-73
2023/09/05 10:39:54;;;;;;;3.13;2.15;;;819.40;1510.40;;;;;;5040695;28;20025;-73
2023/09/05 10:42:28;;;;;;;3.40;2.40;;;819.20;1459.20;;;;;;5042413;28;20044;-72
2023/09/05 10:44:53;;;;;;;8.77;2.70;;;819.30;1510.40;;;;;;5035703;28;20025;-73
2023/09/05 10:47:28;;;;;;;4.68;2.33;;;819.30;1408.00;;;;;;5042346;28;20052;-73
2023/09/05 10:49:59;;;;;;;5.13;2.88;;;819.50;1408.00;;;;;;5044435;28;20020;-72
2023/09/05 10:52:29;;;;;;;5.25;2.97;;;819.40;1408.00;;;;;;5040987;28;20033;-73
2023/09/05 10:54:56;;;;;;;6.53;2.83;;;794.50;1459.20;;;;;;5042802;28;20025;-73
2023/09/05 10:57:39;;;;;;;4.20;2.63;;;819.70;1433.60;;;;;;5039302;28;20038;-72
2023/09/05 11:00:29;;;;;;;4.88;2.90;;;819.70;1459.20;;;;;;5043554;28;20017;-72
2023/09/05 11:03:12;;;;;;;4.75;2.65;;;819.80;1408.00;;;;;;5032821;28;20382;-72
2023/09/05 11:05:40;;;;;;;14.35;4.22;;;819.70;1408.00;;;;;;5037529;28;20084;-72
2023/09/05 11:08:21;;;;;;;4.15;2.60;;;820.00;1382.40;;;;;;5036429;28;20071;-73
2023/09/05 11:10:47;;;;;;;3.95;3.10;;;820.10;1356.80;;;;;;5036811;28;20115;-73
2023/09/05 11:13:17;;;;;;;4.03;2.88;;;820.00;1408.00;;;;;;5037016;28;20029;-73
2023/09/05 11:15:46;;;;;;;12.10;2.53;;;820.00;1382.40;;;;;;5038715;28;20057;-73
2023/09/05 11:18:14;;;;;;;7.93;3.15;;;819.30;1356.80;;;;;;5040136;28;20063;-73
2023/09/05 11:20:44;;;;;;;6.47;2.78;;;819.30;1331.20;;;;;;5041222;28;20389;-72
2023/09/05 11:23:30;;;;;;;5.43;2.63;;;819.30;1331.20;;;;;;5033812;28;20035;-72
2023/09/05 11:26:00;;;;;;;;;;;819.30;1356.80;;;;;;5071403;28;20025;-74
2023/09/05 11:28:26;;;;;;;5.13;2.85;;;819.80;1305.60;;;;;;5036968;28;20276;-72
2023/09/05 11:30:57;;;;;;;4.85;2.83;;;819.70;1305.60;;;;;;5034813;28;20018;-74
2023/09/05 11:33:23;;;;;;;3.65;2.30;;;819.60;1305.60;;;;;;5035801;28;20490;-75
2023/09/05 11:35:49;;;;;;;3.75;2.85;;;794.50;1382.40;;;;;;5038702;28;20051;-74
2023/09/05 11:38:19;;;;;;;4.25;2.67;;;819.40;1305.60;;;;;;5041124;28;20049;-72
2023/09/05 11:40:53;;;;;;;4.75;3.45;;;844.80;1331.20;;;;;;5034968;28;20052;-73
2023/09/05 11:43:18;;;;;;;4.68;2.60;;;845.40;1280.00;;;;;;5039221;28;20030;-74
2023/09/05 11:45:47;;;;;;;4.15;2.92;;;845.20;1254.40;;;;;;5043687;28;20021;-73
2023/09/05 11:48:16;;;;;;;3.60;2.45;;;845.10;1254.40;;;;;;5041967;28;20477;-72
2023/09/05 11:50:44;;;;;;;4.53;3.05;;;819.20;1382.40;;;;;;5040494;28;20389;-72
2023/09/05 11:53:13;;;;;;;4.10;2.75;;;794.00;1433.60;;;;;;5043888;28;20111;-72
2023/09/05 11:55:40;;;;;;;4.13;3.17;;;793.80;1510.40;;;;;;5041445;28;20033;-73
2023/09/05 11:58:06;;;;;;;7.45;2.80;;;793.90;1484.80;;;;;;5048288;28;20017;-72
2023/09/05 12:00:33;;;;;;;4.35;2.85;;;793.70;1459.20;;;;;;5037103;28;20033;-72
2023/09/05 12:03:02;;;;;;;5.40;2.83;;;793.80;1408.00;;;;;;5038763;28;20026;-73
2023/09/05 12:05:35;;;;;;;6.35;2.88;;;794.50;1331.20;;;;;;5044929;28;20051;-72
2023/09/05 12:08:05;;;;;;;4.75;2.90;;;819.30;1382.40;;;;;;5046726;28;20048;-71
2023/09/05 12:10:39;;;;;;;4.25;2.90;;;819.80;1382.40;;;;;;5048632;28;20390;-72
2023/09/05 12:13:06;;;;;;;5.45;2.60;;;819.80;1356.80;;;;;;5041496;28;20025;-73
2023/09/05 12:15:37;;;;;;;6.25;3.00;;;819.80;1331.20;;;;;;5044610;28;20358;-73
2023/09/05 12:18:05;;;;;;;6.10;2.42;;;820.10;1356.80;;;;;;5039827;28;20614;-72
2023/09/05 12:20:35;;;;;;;3.53;2.70;;;820.00;1331.20;;;;;;5041079;28;20103;-73